createdAt,value
2022-08-04T00:00:03.360Z,88.03
2022-08-04T00:03:02.571Z,88.26
2022-08-04T00:06:13.334Z,88.20
2022-08-04T00:09:04.458Z,88.28
2022-08-04T00:11:51.416Z,88.65
2022-08-04T00:14:42.364Z,88.89
2022-08-04T00:17:35.360Z,88.86
2022-08-04T00:20:28.369Z,89.18
2022-08-04T00:23:09.499Z,90.20
2022-08-04T00:25:56.362Z,89.66
2022-08-04T00:28:37.319Z,90.17
2022-08-04T00:31:54.109Z,89.89
2022-08-04T00:34:25.445Z,91.85
2022-08-04T00:37:13.367Z,90.83
2022-08-04T00:39:53.471Z,90.68
2022-08-04T00:43:01.387Z,90.38
2022-08-04T00:46:17.295Z,89.92
2022-08-04T00:49:22.445Z,91.40
2022-08-04T00:52:31.805Z,91.56
2022-08-04T00:55:43.389Z,92.13
2022-08-04T00:58:35.482Z,91.81
2022-08-04T01:02:01.383Z,91.44
2022-08-04T01:05:18.387Z,91.33
2022-08-04T01:08:35.398Z,91.32
2022-08-04T01:11:23.383Z,90.84
2022-08-04T01:14:25.579Z,91.88
2022-08-04T01:17:19.479Z,91.60
2022-08-04T01:20:16.399Z,90.45
2022-08-04T01:23:32.390Z,91.50
2022-08-04T01:26:55.100Z,94.60
2022-08-04T01:29:51.383Z,94.98
2022-08-04T01:32:45.422Z,96.24
2022-08-04T01:35:47.695Z,95.31
2022-08-04T01:38:33.678Z,96.50
2022-08-04T01:41:32.266Z,97.65
2022-08-04T01:44:14.710Z,96.88
2022-08-04T01:47:04.408Z,95.90
2022-08-04T01:49:49.137Z,94.60
2022-08-04T01:52:37.396Z,94.09
2022-08-04T01:55:25.427Z,93.55
2022-08-04T01:58:26.488Z,92.64
2022-08-04T02:01:16.455Z,93.11
2022-08-04T02:04:18.126Z,93.47
2022-08-04T02:07:08.547Z,93.11
2022-08-04T02:10:05.401Z,92.64
2022-08-04T02:13:06.415Z,92.84
2022-08-04T02:15:46.470Z,93.43
2022-08-04T02:19:03.411Z,93.11
2022-08-04T02:21:53.404Z,92.96
2022-08-04T02:24:46.446Z,93.55
2022-08-04T02:28:00.160Z,94.22
2022-08-04T02:30:53.433Z,93.49
2022-08-04T02:33:43.491Z,94.76
2022-08-04T02:36:37.439Z,95.12
2022-08-04T02:39:18.558Z,95.61
2022-08-04T02:42:06.417Z,96.60
2022-08-04T02:44:50.548Z,96.07
2022-08-04T02:48:29.477Z,95.41
2022-08-04T02:50:41.826Z,95.56
2022-08-04T02:53:29.423Z,95.37
2022-08-04T02:56:16.434Z,95.21
2022-08-04T02:59:07.441Z,95.28
2022-08-04T03:01:57.043Z,95.15
2022-08-04T03:05:04.429Z,95.30
2022-08-04T03:08:21.430Z,95.55
2022-08-04T03:11:43.488Z,95.38
2022-08-04T03:14:24.505Z,95.54
2022-08-04T03:17:12.588Z,95.33
2022-08-04T03:20:05.814Z,95.28
2022-08-04T03:23:27.445Z,95.81
2022-08-04T03:26:37.509Z,96.38
2022-08-04T03:29:36.418Z,96.70
2022-08-04T03:32:36.519Z,97.07
2022-08-04T03:35:53.477Z,96.33
2022-08-04T03:38:55.714Z,95.84
2022-08-04T03:42:04.125Z,96.35
2022-08-04T03:45:23.511Z,96.47
2022-08-04T03:48:47.458Z,97.14
2022-08-04T03:52:06.489Z,98.46
2022-08-04T03:55:03.160Z,99.98
2022-08-04T03:58:04.456Z,100.00
2022-08-04T04:01:07.477Z,100.00
2022-08-04T04:03:58.463Z,100.00
2022-08-04T04:06:39.757Z,100.00
2022-08-04T04:09:53.870Z,100.00
2022-08-04T04:12:49.693Z,100.00
2022-08-04T04:16:03.495Z,100.00
2022-08-04T04:18:59.815Z,100.00
2022-08-04T04:22:11.534Z,100.00
2022-08-04T04:24:51.731Z,100.00
2022-08-04T04:27:38.488Z,100.00
2022-08-04T04:30:31.641Z,100.00
2022-08-04T04:33:48.483Z,97.72
2022-08-04T04:36:44.153Z,98.80
2022-08-04T04:39:39.493Z,98.90
2022-08-04T04:42:54.464Z,100.00
2022-08-04T04:45:51.477Z,99.28
2022-08-04T04:48:38.484Z,99.61
2022-08-04T04:51:34.142Z,100.00
2022-08-04T04:54:33.494Z,100.00
2022-08-04T04:57:17.802Z,100.00
2022-08-04T05:00:15.499Z,100.00
2022-08-04T05:03:00.431Z,100.00
2022-08-04T05:06:01.505Z,100.00
2022-08-04T05:09:18.493Z,100.00
2022-08-04T05:13:05.074Z,100.00
2022-08-04T05:15:36.003Z,100.00
2022-08-04T05:18:26.490Z,100.00
2022-08-04T05:21:21.517Z,100.00
2022-08-04T05:24:13.494Z,100.00
2022-08-04T05:27:03.550Z,100.00
2022-08-04T05:29:48.559Z,100.00
2022-08-04T05:32:43.507Z,100.00
2022-08-04T05:35:49.782Z,100.00
2022-08-04T05:38:44.525Z,100.00
2022-08-04T05:41:45.969Z,100.00
2022-08-04T05:44:29.067Z,98.13
2022-08-04T05:47:16.532Z,95.22
2022-08-04T05:50:01.868Z,94.02
2022-08-04T05:52:51.529Z,86.05
2022-08-04T05:55:56.635Z,85.94
2022-08-04T05:58:40.538Z,85.07
2022-08-04T06:01:30.578Z,83.72
2022-08-04T06:04:13.445Z,85.15
2022-08-04T06:07:02.529Z,83.10
2022-08-04T06:09:49.501Z,84.18
2022-08-04T06:12:37.663Z,83.02
2022-08-04T06:15:26.522Z,82.62
2022-08-04T06:19:57.767Z,82.72
2022-08-04T06:21:22.524Z,81.54
2022-08-04T06:24:10.536Z,80.76
2022-08-04T06:26:59.541Z,80.13
2022-08-04T06:29:51.642Z,79.63
2022-08-04T06:32:53.558Z,80.32
2022-08-04T06:35:44.588Z,77.32
2022-08-04T06:38:33.555Z,78.55
2022-08-04T06:41:24.530Z,77.97
2022-08-04T06:44:15.555Z,79.15
2022-08-04T06:46:55.616Z,76.49
2022-08-04T06:51:25.896Z,76.43
2022-08-04T06:52:52.551Z,76.15
2022-08-04T06:55:34.391Z,73.31
2022-08-04T06:58:23.572Z,73.24
2022-08-04T07:01:11.549Z,76.83
2022-08-04T07:03:58.575Z,75.71
2022-08-04T07:06:39.127Z,75.28
2022-08-04T07:09:25.539Z,72.83
2022-08-04T07:12:14.564Z,74.17
2022-08-04T07:15:03.563Z,70.69
2022-08-04T07:17:45.475Z,73.38
2022-08-04T07:20:37.066Z,73.15
2022-08-04T07:23:23.137Z,73.83
2022-08-04T07:26:12.693Z,72.50
2022-08-04T07:28:52.891Z,72.77
2022-08-04T07:31:40.567Z,72.35
2022-08-04T07:34:27.556Z,71.60
2022-08-04T07:37:11.645Z,71.14
2022-08-04T07:39:58.690Z,74.02
2022-08-04T07:42:52.567Z,72.22
2022-08-04T07:45:32.584Z,71.00
2022-08-04T07:48:14.581Z,71.71
2022-08-04T07:51:01.587Z,70.50
2022-08-04T07:53:53.985Z,71.38
2022-08-04T07:56:43.576Z,70.67
2022-08-04T07:59:24.763Z,71.09
2022-08-04T08:02:15.598Z,71.89
2022-08-04T08:05:02.588Z,67.51
2022-08-04T08:07:50.685Z,68.16
2022-08-04T08:10:42.601Z,67.96
2022-08-04T08:13:33.214Z,67.96
2022-08-04T08:16:13.346Z,69.72
2022-08-04T08:18:59.592Z,66.10
2022-08-04T08:21:59.281Z,65.61
2022-08-04T08:24:53.582Z,66.36
2022-08-04T08:27:40.585Z,66.80
2022-08-04T08:30:35.719Z,66.30
2022-08-04T08:33:23.589Z,67.88
2022-08-04T08:36:26.608Z,61.69
2022-08-04T08:39:32.676Z,62.09
2022-08-04T08:42:13.682Z,62.44
2022-08-04T08:45:32.601Z,62.38
2022-08-04T08:48:13.679Z,61.72
2022-08-04T08:51:15.599Z,60.08
2022-08-04T08:54:00.685Z,63.24
2022-08-04T08:57:22.785Z,61.96
2022-08-04T09:00:44.611Z,62.64
2022-08-04T09:03:47.270Z,63.27
2022-08-04T09:06:57.619Z,62.15
2022-08-04T09:10:13.119Z,61.92
2022-08-04T09:13:04.627Z,62.31
2022-08-04T09:15:44.898Z,62.65
2022-08-04T09:18:37.604Z,61.28
2022-08-04T09:21:36.649Z,61.89
2022-08-04T09:24:36.543Z,61.24
2022-08-04T09:27:23.095Z,62.25
2022-08-04T09:30:25.621Z,62.80
2022-08-04T09:33:44.684Z,61.37
2022-08-04T09:36:45.732Z,61.34
2022-08-04T09:39:44.506Z,61.63
2022-08-04T09:43:08.749Z,61.96
2022-08-04T09:46:08.797Z,61.27
2022-08-04T09:49:05.661Z,60.96
2022-08-04T09:52:05.636Z,60.49
2022-08-04T09:55:00.819Z,60.44
2022-08-04T09:57:55.643Z,58.38
2022-08-04T10:00:42.243Z,58.63
2022-08-04T10:03:32.747Z,57.25
2022-08-04T10:06:36.699Z,59.52
2022-08-04T10:09:32.185Z,59.00
2022-08-04T10:12:42.665Z,59.19
2022-08-04T10:15:41.666Z,56.41
2022-08-04T10:18:36.667Z,57.36
2022-08-04T10:21:59.362Z,57.33
2022-08-04T10:26:03.263Z,56.83
2022-08-04T10:28:13.102Z,58.30
2022-08-04T10:31:05.667Z,58.79
2022-08-04T10:34:07.680Z,58.24
2022-08-04T10:37:00.665Z,58.38
2022-08-04T10:40:15.819Z,57.38
2022-08-04T10:43:23.098Z,55.99
2022-08-04T10:46:18.124Z,56.05
2022-08-04T10:49:17.669Z,56.91
2022-08-04T10:52:18.668Z,54.97
2022-08-04T10:55:10.750Z,56.22
2022-08-04T10:58:01.715Z,56.10
2022-08-04T11:00:45.760Z,56.25
2022-08-04T11:03:41.677Z,55.56
2022-08-04T11:06:21.766Z,55.63
2022-08-04T11:09:13.970Z,54.08
2022-08-04T11:12:08.730Z,54.96
2022-08-04T11:15:02.707Z,53.24
2022-08-04T11:17:54.700Z,58.98
2022-08-04T11:20:48.710Z,53.72
2022-08-04T11:23:35.893Z,52.79
2022-08-04T11:26:28.720Z,53.45
2022-08-04T11:29:25.690Z,53.32
2022-08-04T11:32:13.887Z,52.26
2022-08-04T11:35:05.714Z,53.18
2022-08-04T11:37:52.229Z,53.66
2022-08-04T11:40:55.838Z,53.18
2022-08-04T11:44:12.749Z,51.24
2022-08-04T11:47:05.724Z,54.24
2022-08-04T11:49:59.718Z,50.39
2022-08-04T11:52:49.731Z,51.46
2022-08-04T11:56:08.100Z,50.89
2022-08-04T11:58:41.319Z,51.91
2022-08-04T12:01:38.707Z,52.73
2022-08-04T12:04:47.385Z,52.29
2022-08-04T12:07:42.860Z,50.86
2022-08-04T12:10:51.763Z,51.28
2022-08-04T12:13:55.279Z,50.85
2022-08-04T12:16:55.761Z,51.80
2022-08-04T12:20:05.286Z,50.13
2022-08-04T12:22:56.751Z,53.18
2022-08-04T12:25:53.736Z,49.40
2022-08-04T12:29:08.420Z,48.87
2022-08-04T12:31:52.785Z,49.94
2022-08-04T12:34:47.764Z,49.64
2022-08-04T12:37:45.882Z,50.71
2022-08-04T12:40:32.690Z,48.54
2022-08-04T12:43:31.765Z,51.10
2022-08-04T12:46:15.822Z,49.29
2022-08-04T12:49:08.762Z,49.39
2022-08-04T12:52:08.066Z,49.52
2022-08-04T12:55:00.818Z,50.46
2022-08-04T12:57:42.830Z,50.56
2022-08-04T13:00:35.427Z,50.75
2022-08-04T13:03:23.984Z,48.18
2022-08-04T13:06:12.778Z,49.60
2022-08-04T13:08:53.857Z,46.77
2022-08-04T13:11:45.771Z,50.22
2022-08-04T13:14:29.031Z,45.47
2022-08-04T13:17:15.767Z,46.80
2022-08-04T13:19:56.933Z,48.54
2022-08-04T13:22:46.567Z,49.05
2022-08-04T13:26:44.708Z,49.33
2022-08-04T13:28:34.795Z,47.68
2022-08-04T13:31:20.073Z,47.50
2022-08-04T13:34:18.926Z,48.73
2022-08-04T13:37:02.794Z,49.50
2022-08-04T13:39:43.897Z,48.68
2022-08-04T13:42:44.817Z,48.97
2022-08-04T13:45:33.831Z,48.18
2022-08-04T13:48:32.427Z,49.02
2022-08-04T13:51:24.815Z,48.60
2022-08-04T13:54:27.167Z,48.94
2022-08-04T13:57:27.815Z,50.08
2022-08-04T14:00:09.652Z,47.02
2022-08-04T14:03:23.085Z,46.96
2022-08-04T14:06:21.154Z,48.58
2022-08-04T14:09:35.843Z,48.00
2022-08-04T14:12:38.388Z,47.31
2022-08-04T14:16:03.620Z,48.26
2022-08-04T14:18:50.844Z,48.85
2022-08-04T14:21:37.947Z,45.43
2022-08-04T14:24:34.813Z,44.18
2022-08-04T14:27:21.976Z,44.84
2022-08-04T14:30:08.843Z,44.62
2022-08-04T14:34:04.583Z,46.27
2022-08-04T14:36:22.481Z,46.09
2022-08-04T14:39:13.912Z,46.28
2022-08-04T14:42:00.831Z,43.77
2022-08-04T14:45:10.843Z,40.71
2022-08-04T14:47:57.850Z,43.20
2022-08-04T14:50:53.913Z,40.73
2022-08-04T14:53:43.852Z,39.59
2022-08-04T14:56:37.812Z,40.68
2022-08-04T14:59:31.847Z,40.99
2022-08-04T15:02:11.974Z,42.62
2022-08-04T15:04:58.881Z,42.89
2022-08-04T15:07:39.916Z,43.11
2022-08-04T15:10:26.846Z,41.81
2022-08-04T15:13:08.926Z,41.41
2022-08-04T15:16:00.985Z,40.72
2022-08-04T15:18:49.301Z,39.91
2022-08-04T15:21:36.879Z,39.55
2022-08-04T15:24:16.919Z,39.68
2022-08-04T15:27:06.862Z,39.25
2022-08-04T15:29:59.734Z,40.71
2022-08-04T15:32:48.539Z,40.40
2022-08-04T15:35:39.137Z,43.27
2022-08-04T15:38:33.858Z,39.06
2022-08-04T15:41:27.877Z,42.42
2022-08-04T15:44:16.900Z,42.64
2022-08-04T15:46:56.984Z,43.36
2022-08-04T15:49:45.878Z,46.48
2022-08-04T15:52:26.152Z,43.95
2022-08-04T15:55:45.904Z,42.96
2022-08-04T15:58:29.965Z,44.10
2022-08-04T16:01:21.963Z,44.13
2022-08-04T16:04:02.053Z,45.25
2022-08-04T16:06:49.902Z,44.27
2022-08-04T16:09:46.089Z,44.60
2022-08-04T16:12:55.229Z,44.74
2022-08-04T16:16:03.374Z,42.72
2022-08-04T16:18:44.587Z,42.30
2022-08-04T16:21:33.897Z,43.82
2022-08-04T16:24:19.308Z,44.27
2022-08-04T16:27:12.896Z,45.33
2022-08-04T16:30:14.314Z,45.38
2022-08-04T16:32:55.545Z,47.29
2022-08-04T16:35:42.434Z,47.64
2022-08-04T16:38:23.003Z,46.40
2022-08-04T16:41:09.910Z,46.33
2022-08-04T16:43:56.960Z,46.88
2022-08-04T16:47:08.910Z,47.74
2022-08-04T16:49:49.499Z,47.75
2022-08-04T16:52:38.936Z,53.91
2022-08-04T16:55:21.478Z,54.94
2022-08-04T16:58:10.937Z,54.49
2022-08-04T17:00:52.316Z,56.51
2022-08-04T17:03:39.948Z,55.10
2022-08-04T17:06:20.363Z,55.66
2022-08-04T17:09:06.947Z,56.12
2022-08-04T17:11:54.959Z,56.44
2022-08-04T17:14:37.036Z,56.67
2022-08-04T17:18:04.012Z,56.67
2022-08-04T17:20:59.388Z,58.73
2022-08-04T17:24:14.479Z,59.75
2022-08-04T17:26:56.986Z,57.40
2022-08-04T17:32:43.948Z,59.06
2022-08-04T17:35:38.473Z,56.62
2022-08-04T17:38:25.953Z,54.07
2022-08-04T17:41:19.475Z,57.91
2022-08-04T17:44:17.669Z,59.91
2022-08-04T17:46:58.333Z,63.24
2022-08-04T17:49:53.227Z,64.48
2022-08-04T17:52:45.339Z,62.39
2022-08-04T17:55:32.031Z,60.46
2022-08-04T17:58:23.154Z,63.72
2022-08-04T18:04:30.000Z,66.97
2022-08-04T18:10:51.809Z,68.10
2022-08-04T18:13:42.973Z,59.40
2022-08-04T18:16:29.993Z,61.24
2022-08-04T18:19:19.623Z,63.54
2022-08-04T18:22:07.355Z,63.77
2022-08-04T18:24:55.807Z,67.35
2022-08-04T18:27:54.024Z,66.68
2022-08-04T18:30:55.035Z,67.51
2022-08-04T18:33:39.939Z,67.36
2022-08-04T18:36:37.284Z,67.13
2022-08-04T18:39:18.616Z,67.33
2022-08-04T18:42:26.112Z,68.00
2022-08-04T18:45:19.996Z,67.84
2022-08-04T18:48:14.438Z,67.94
2022-08-04T18:51:10.953Z,67.95
2022-08-04T18:54:02.020Z,69.61
2022-08-04T18:57:08.593Z,68.89
2022-08-04T18:59:49.031Z,69.28
2022-08-04T19:02:27.438Z,69.26
2022-08-04T19:04:54.199Z,70.06
2022-08-04T19:07:29.686Z,69.82
2022-08-04T19:09:58.180Z,70.12
2022-08-04T19:12:26.739Z,70.36
2022-08-04T19:14:58.327Z,70.84
2022-08-04T19:17:53.856Z,70.59
2022-08-04T19:20:24.140Z,71.17
2022-08-04T19:24:11.269Z,71.76
2022-08-04T19:25:41.690Z,71.64
2022-08-04T19:28:29.274Z,72.21
2022-08-04T19:30:58.025Z,72.90
2022-08-04T19:36:11.697Z,73.96
2022-08-04T19:38:38.492Z,74.66
2022-08-04T19:41:14.381Z,74.22
2022-08-04T19:43:43.600Z,75.49
2022-08-04T19:46:12.175Z,74.97
2022-08-04T19:48:39.734Z,75.20
2022-08-04T19:51:07.763Z,75.78
2022-08-04T19:53:37.986Z,75.58
2022-08-04T19:56:12.185Z,75.38
2022-08-04T19:58:38.807Z,75.79
2022-08-04T20:01:05.539Z,75.86
2022-08-04T20:04:10.152Z,76.97
2022-08-04T20:06:37.930Z,76.75
2022-08-04T20:09:04.698Z,78.00
2022-08-04T20:11:51.367Z,77.09
2022-08-04T20:14:19.628Z,78.27
2022-08-04T20:16:58.947Z,77.89
2022-08-04T20:19:25.787Z,78.41
2022-08-04T20:21:56.360Z,78.95
2022-08-04T20:24:36.785Z,79.56
2022-08-04T20:27:15.379Z,78.57
2022-08-04T20:32:31.127Z,78.97
2022-08-04T20:34:58.705Z,80.01
2022-08-04T20:40:14.634Z,80.95
2022-08-04T20:42:41.536Z,80.66
2022-08-04T20:45:16.246Z,81.03
2022-08-04T20:47:54.124Z,81.08
2022-08-04T20:50:30.255Z,81.94
2022-08-04T20:52:57.296Z,82.56
2022-08-04T20:55:25.400Z,82.91
2022-08-04T20:58:00.843Z,83.19
2022-08-04T21:00:30.668Z,83.61
2022-08-04T21:02:59.164Z,83.60
2022-08-04T21:05:26.564Z,84.17
2022-08-04T21:07:56.743Z,84.86
2022-08-04T21:10:24.775Z,85.68
2022-08-04T21:12:53.219Z,85.13
2022-08-04T21:15:24.635Z,85.68
2022-08-04T21:17:57.529Z,85.94
2022-08-04T21:20:29.522Z,85.56
2022-08-04T21:23:01.573Z,85.07
2022-08-04T21:25:28.557Z,85.63
2022-08-04T21:27:58.501Z,85.06
2022-08-04T21:30:26.359Z,85.33
2022-08-04T21:32:54.927Z,85.58
2022-08-04T21:35:30.126Z,85.00
2022-08-04T21:38:16.624Z,86.57
2022-08-04T21:41:01.531Z,86.15
2022-08-04T21:43:29.944Z,87.10
2022-08-04T21:46:09.490Z,87.19
2022-08-04T21:48:36.078Z,87.57
2022-08-04T21:52:00.656Z,87.53
2022-08-04T21:54:15.234Z,86.97
2022-08-04T21:56:50.909Z,88.13
2022-08-04T21:59:23.782Z,87.42
2022-08-04T22:01:57.918Z,87.65
2022-08-04T22:04:27.075Z,88.86
2022-08-04T22:06:53.760Z,88.56
2022-08-04T22:09:21.900Z,88.64
2022-08-04T22:11:51.002Z,89.01
2022-08-04T22:14:27.159Z,88.17
2022-08-04T22:16:56.489Z,88.69
2022-08-04T22:19:39.600Z,88.93
2022-08-04T22:22:13.649Z,89.05
2022-08-04T22:24:53.119Z,88.62
2022-08-04T22:27:34.984Z,88.38
2022-08-04T22:30:09.285Z,88.03
2022-08-04T22:32:43.334Z,88.86
2022-08-04T22:35:36.471Z,89.63
2022-08-04T22:37:57.419Z,90.00
2022-08-04T22:40:34.558Z,90.04
2022-08-04T22:43:03.070Z,89.59
2022-08-04T22:45:44.326Z,90.10
2022-08-04T22:48:11.670Z,90.21
2022-08-04T22:50:38.427Z,90.33
2022-08-04T22:53:06.509Z,90.40
2022-08-04T22:56:07.693Z,90.55
2022-08-04T22:58:20.065Z,90.65
2022-08-04T23:00:53.099Z,92.00
2022-08-04T23:03:37.191Z,92.69
2022-08-04T23:06:10.875Z,93.60
2022-08-04T23:08:39.281Z,95.41
2022-08-04T23:11:10.317Z,95.08
2022-08-04T23:13:37.590Z,94.87
2022-08-04T23:16:09.996Z,93.46
2022-08-04T23:18:41.893Z,92.83
2022-08-04T23:21:10.507Z,92.58
2022-08-04T23:23:55.305Z,92.42
2022-08-04T23:26:27.720Z,92.23
2022-08-04T23:28:56.039Z,92.05
2022-08-04T23:31:23.144Z,91.87
2022-08-04T23:33:51.033Z,92.94
2022-08-04T23:36:30.004Z,92.79
2022-08-04T23:39:00.564Z,92.71
2022-08-04T23:41:55.393Z,93.33
2022-08-04T23:44:17.566Z,94.30
2022-08-04T23:47:01.345Z,94.72
2022-08-04T23:49:43.519Z,94.44
2022-08-04T23:52:23.529Z,94.52
2022-08-04T23:54:59.151Z,94.27
2022-08-04T23:58:02.052Z,93.78
